Time;durP1;ratioP1;P1;durP2;ratioP2;P2;SDS_P1;SDS_P2;PMS_P1;PMS_P2;Temp;Humidity;BMP_temperature;BMP_pressure;BME280_temperature;BME280_humidity;BME280_pressure;Samples;Min_cycle;Max_cycle;Signal;HPM_P1;HPM_P2
2021/06/26 00:03:04;;;;;;;3.55;1.15;;;;;;;;;;6964576;28;20077;-77
2021/06/26 00:06:25;;;;;;;5.45;0.80;;;;;;;;;;6952565;28;20530;-77
2021/06/26 00:09:45;;;;;;;0.50;0.50;;;;;;;;;;6943104;28;20051;-76
2021/06/26 00:13:06;;;;;;;3.15;0.70;;;;;;;;;;6970076;28;20064;-76
2021/06/26 00:16:26;;;;;;;9.35;0.80;;;;;;;;;;6969372;28;20060;-77
2021/06/26 00:19:47;;;;;;;3.75;0.80;;;;;;;;;;6961008;28;20052;-77
2021/06/26 00:23:07;;;;;;;3.53;0.80;;;;;;;;;;6968959;28;20625;-77
2021/06/26 00:26:28;;;;;;;4.57;0.90;;;;;;;;;;6955663;28;20056;-76
2021/06/26 00:29:48;;;;;;;0.52;0.52;;;;;;;;;;6960315;28;20041;-77
2021/06/26 00:33:08;;;;;;;4.95;0.68;;;;;;;;;;6968923;28;20419;-77
2021/06/26 00:36:29;;;;;;;1.02;0.63;;;;;;;;;;6968787;28;20049;-77
2021/06/26 00:39:49;;;;;;;5.57;0.57;;;;;;;;;;6958554;28;20056;-76
2021/06/26 00:43:10;;;;;;;3.13;0.60;;;;;;;;;;6968798;28;20475;-77
2021/06/26 00:46:30;;;;;;;1.23;0.60;;;;;;;;;;6968629;28;20052;-77
2021/06/26 00:49:51;;;;;;;3.35;0.68;;;;;;;;;;6950303;28;20049;-76
2021/06/26 00:53:11;;;;;;;0.93;0.50;;;;;;;;;;6965283;28;20052;-76
2021/06/26 00:56:32;;;;;;;0.93;0.93;;;;;;;;;;6968106;28;20097;-76
2021/06/26 00:59:52;;;;;;;0.93;0.68;;;;;;;;;;6943597;28;20052;-76
2021/06/26 01:03:13;;;;;;;3.60;0.73;;;;;;;;;;6963755;28;20059;-76
2021/06/26 01:06:33;;;;;;;0.70;0.52;;;;;;;;;;6954251;28;20491;-77
2021/06/26 01:09:54;;;;;;;1.05;0.60;;;;;;;;;;6947319;28;20052;-77
2021/06/26 01:13:14;;;;;;;1.52;0.70;;;;;;;;;;6968191;28;20091;-77
2021/06/26 01:16:35;;;;;;;1.20;0.70;;;;;;;;;;6960692;28;20077;-77
2021/06/26 01:19:55;;;;;;;2.90;0.50;;;;;;;;;;6949818;28;20037;-77
2021/06/26 01:23:16;;;;;;;0.98;0.65;;;;;;;;;;6967790;28;20084;-77
2021/06/26 01:26:37;;;;;;;1.20;0.60;;;;;;;;;;6999339;22;20468;-77
2021/06/26 01:29:57;;;;;;;0.75;0.50;;;;;;;;;;6987362;28;20142;-77
2021/06/26 01:33:17;;;;;;;1.08;0.60;;;;;;;;;;7023244;28;20117;-77
2021/06/26 01:36:38;;;;;;;0.63;0.60;;;;;;;;;;7031470;28;20496;-77
2021/06/26 01:39:58;;;;;;;1.95;0.60;;;;;;;;;;7008985;28;20055;-77
2021/06/26 01:43:19;;;;;;;1.15;0.60;;;;;;;;;;7023427;28;20072;-77
2021/06/26 01:46:40;;;;;;;0.60;0.45;;;;;;;;;;6987766;28;20511;-77
2021/06/26 01:50:02;;;;;;;0.70;0.55;;;;;;;;;;7023092;28;20051;-77
2021/06/26 01:53:23;;;;;;;1.08;0.60;;;;;;;;;;7022752;28;20048;-77
2021/06/26 01:56:43;;;;;;;1.83;0.73;;;;;;;;;;7005145;28;20071;-77
2021/06/26 02:00:05;;;;;;;1.52;0.70;;;;;;;;;;7022706;28;20044;-77
2021/06/26 02:03:25;;;;;;;3.67;0.60;;;;;;;;;;7022887;28;20059;-77
2021/06/26 02:06:46;;;;;;;0.43;0.43;;;;;;;;;;7022541;28;20048;-77
2021/06/26 02:10:07;;;;;;;1.75;0.60;;;;;;;;;;7035769;28;20135;-77
2021/06/26 02:13:28;;;;;;;0.50;0.50;;;;;;;;;;7022458;28;20044;-77
2021/06/26 02:16:48;;;;;;;1.20;0.70;;;;;;;;;;7004536;28;20127;-77
2021/06/26 02:20:09;;;;;;;1.80;0.70;;;;;;;;;;7024015;28;20050;-77
2021/06/26 02:23:30;;;;;;;0.77;0.50;;;;;;;;;;7031953;28;20381;-77
2021/06/26 02:26:50;;;;;;;5.03;0.63;;;;;;;;;;7002823;28;20489;-77
2021/06/26 02:30:12;;;;;;;1.05;0.80;;;;;;;;;;7018515;28;20036;-77
2021/06/26 02:33:32;;;;;;;0.52;0.52;;;;;;;;;;7021943;28;20433;-77
2021/06/26 02:36:53;;;;;;;3.45;0.95;;;;;;;;;;7006461;28;20526;-80
2021/06/26 02:40:14;;;;;;;0.60;0.60;;;;;;;;;;7023619;28;20048;-80
2021/06/26 02:43:34;;;;;;;3.13;0.60;;;;;;;;;;6988944;28;20141;-79
2021/06/26 02:46:55;;;;;;;3.05;0.63;;;;;;;;;;6999251;28;20048;-80
2021/06/26 02:50:15;;;;;;;0.65;0.50;;;;;;;;;;7000323;28;20076;-80
2021/06/26 02:53:36;;;;;;;0.85;0.60;;;;;;;;;;7008524;28;20489;-79
2021/06/26 02:56:56;;;;;;;4.03;0.63;;;;;;;;;;7023304;28;20119;-78
2021/06/26 03:00:17;;;;;;;0.85;0.60;;;;;;;;;;7000320;28;20044;-79
2021/06/26 03:03:38;;;;;;;0.47;0.45;;;;;;;;;;7017089;28;20405;-78
2021/06/26 03:06:58;;;;;;;1.33;0.77;;;;;;;;;;6998630;28;20094;-79
2021/06/26 03:10:19;;;;;;;1.02;0.52;;;;;;;;;;6999731;28;20076;-79
2021/06/26 03:13:39;;;;;;;2.72;0.70;;;;;;;;;;7038165;28;20052;-79
2021/06/26 03:17:00;;;;;;;1.00;0.55;;;;;;;;;;6967096;28;20461;-79
2021/06/26 03:20:20;;;;;;;1.27;0.60;;;;;;;;;;6998411;28;20044;-79
2021/06/26 03:23:41;;;;;;;1.27;0.63;;;;;;;;;;6994012;28;20413;-79
2021/06/26 03:27:02;;;;;;;1.00;0.80;;;;;;;;;;6979149;28;20076;-79
2021/06/26 03:30:22;;;;;;;0.60;0.43;;;;;;;;;;7005453;28;20047;-78
2021/06/26 03:33:43;;;;;;;0.50;0.50;;;;;;;;;;7018098;28;20130;-79
2021/06/26 03:37:03;;;;;;;1.00;0.60;;;;;;;;;;7000816;28;20131;-78
2021/06/26 03:40:24;;;;;;;1.13;0.73;;;;;;;;;;6998083;28;20591;-79
2021/06/26 03:43:44;;;;;;;1.05;0.50;;;;;;;;;;6998210;28;20086;-79
2021/06/26 03:47:05;;;;;;;1.35;0.60;;;;;;;;;;7025244;28;20524;-79
2021/06/26 03:50:25;;;;;;;0.55;0.50;;;;;;;;;;6966113;28;20052;-80
2021/06/26 03:53:47;;;;;;;0.40;0.40;;;;;;;;;;7017865;28;20048;-80
2021/06/26 03:57:07;;;;;;;1.73;0.73;;;;;;;;;;7017247;28;20062;-79
2021/06/26 04:00:28;;;;;;;1.23;0.50;;;;;;;;;;7025136;28;20040;-79
2021/06/26 04:03:48;;;;;;;0.77;0.77;;;;;;;;;;7004697;28;20052;-79
2021/06/26 04:07:09;;;;;;;1.10;0.43;;;;;;;;;;7024091;28;20485;-79
2021/06/26 04:10:29;;;;;;;1.05;0.60;;;;;;;;;;7003836;28;20055;-79
2021/06/26 04:13:49;;;;;;;0.50;0.50;;;;;;;;;;7037294;28;20048;-80
2021/06/26 04:17:10;;;;;;;0.50;0.50;;;;;;;;;;7006727;28;20130;-80
2021/06/26 04:20:30;;;;;;;3.95;0.70;;;;;;;;;;7024381;28;20044;-80
2021/06/26 04:23:51;;;;;;;1.35;0.70;;;;;;;;;;7006056;28;20067;-79
2021/06/26 04:27:11;;;;;;;0.95;0.50;;;;;;;;;;7021272;28;20077;-79
2021/06/26 04:30:32;;;;;;;0.65;0.50;;;;;;;;;;7021862;28;20067;-79
2021/06/26 04:33:52;;;;;;;0.30;0.30;;;;;;;;;;7008262;28;20044;-78
2021/06/26 04:37:12;;;;;;;3.28;1.30;;;;;;;;;;7010902;28;20470;-79
2021/06/26 04:40:33;;;;;;;1.02;1.02;;;;;;;;;;6996650;28;20125;-79
2021/06/26 04:43:54;;;;;;;1.85;1.20;;;;;;;;;;7016100;28;20052;-79
2021/06/26 04:47:14;;;;;;;3.83;3.58;;;;;;;;;;6996461;28;20510;-78
2021/06/26 04:50:35;;;;;;;3.20;3.00;;;;;;;;;;7021155;28;20044;-78
2021/06/26 04:53:56;;;;;;;3.05;2.95;;;;;;;;;;7017048;28;20048;-78
2021/06/26 04:57:16;;;;;;;0.70;0.70;;;;;;;;;;7005647;28;20048;-78
2021/06/26 05:00:36;;;;;;;0.57;0.57;;;;;;;;;;7009867;28;20055;-79
2021/06/26 05:03:57;;;;;;;0.65;0.65;;;;;;;;;;7001912;28;20135;-79
2021/06/26 05:07:17;;;;;;;1.15;0.70;;;;;;;;;;6995816;28;20153;-78
2021/06/26 05:10:38;;;;;;;0.80;0.77;;;;;;;;;;6976696;28;20045;-80
2021/06/26 05:13:58;;;;;;;1.10;0.73;;;;;;;;;;7024211;28;20494;-80
2021/06/26 05:17:20;;;;;;;1.27;0.75;;;;;;;;;;6995934;28;20133;-80
2021/06/26 05:20:41;;;;;;;1.20;0.82;;;;;;;;;;6978403;28;20041;-80
2021/06/26 05:24:03;;;;;;;0.88;0.80;;;;;;;;;;7026857;28;20044;-80
2021/06/26 05:27:23;;;;;;;2.40;0.88;;;;;;;;;;6996828;28;20123;-80
2021/06/26 05:30:44;;;;;;;0.68;0.68;;;;;;;;;;7022278;28;20105;-78
2021/06/26 05:34:05;;;;;;;4.03;0.88;;;;;;;;;;6986936;28;20098;-79
2021/06/26 05:37:25;;;;;;;0.60;0.60;;;;;;;;;;6974472;28;20048;-79
2021/06/26 05:40:45;;;;;;;0.60;0.60;;;;;;;;;;6990582;28;20098;-78
2021/06/26 05:44:06;;;;;;;1.45;0.68;;;;;;;;;;7010261;28;20388;-78
2021/06/26 05:47:26;;;;;;;0.60;0.60;;;;;;;;;;7035282;28;20052;-78
2021/06/26 05:50:47;;;;;;;0.70;0.70;;;;;;;;;;6997181;28;20494;-78
2021/06/26 05:54:07;;;;;;;0.70;0.70;;;;;;;;;;6994711;28;20064;-78
2021/06/26 05:57:28;;;;;;;1.67;0.80;;;;;;;;;;7009734;28;20048;-78
2021/06/26 06:00:48;;;;;;;0.93;0.70;;;;;;;;;;7008961;28;20160;-79
2021/06/26 06:04:09;;;;;;;2.45;0.70;;;;;;;;;;6998449;28;20486;-77
2021/06/26 06:07:29;;;;;;;1.20;0.80;;;;;;;;;;6998916;28;20055;-78
2021/06/26 06:10:50;;;;;;;0.73;0.73;;;;;;;;;;7008288;28;20131;-78
2021/06/26 06:14:10;;;;;;;1.13;0.65;;;;;;;;;;7016144;28;20906;-79
2021/06/26 06:17:31;;;;;;;0.70;0.70;;;;;;;;;;7005282;28;20040;-78
2021/06/26 06:20:51;;;;;;;0.60;0.60;;;;;;;;;;7020832;28;20071;-78
2021/06/26 06:24:11;;;;;;;0.70;0.70;;;;;;;;;;6999911;28;20065;-78
2021/06/26 06:27:33;;;;;;;0.75;0.60;;;;;;;;;;7001439;28;20124;-79
2021/06/26 06:30:54;;;;;;;0.80;0.80;;;;;;;;;;7002950;28;20048;-79
2021/06/26 06:34:14;;;;;;;0.63;0.63;;;;;;;;;;7020634;28;20089;-79
2021/06/26 06:37:36;;;;;;;1.55;0.80;;;;;;;;;;7026814;28;20052;-79
2021/06/26 06:40:57;;;;;;;0.93;0.60;;;;;;;;;;7007845;28;20044;-79
2021/06/26 06:44:18;;;;;;;1.10;0.80;;;;;;;;;;7018611;28;20048;-79
2021/06/26 06:47:39;;;;;;;2.63;0.63;;;;;;;;;;7026863;28;20540;-79
2021/06/26 06:50:59;;;;;;;0.80;0.80;;;;;;;;;;7008098;28;20054;-79
2021/06/26 06:54:19;;;;;;;0.75;0.75;;;;;;;;;;6990938;28;20039;-79
2021/06/26 06:57:40;;;;;;;0.60;0.60;;;;;;;;;;7025890;28;20516;-79
2021/06/26 07:01:01;;;;;;;5.65;0.90;;;;;;;;;;6991063;28;20447;-79
2021/06/26 07:04:22;;;;;;;23.45;1.27;;;;;;;;;;7027995;28;20370;-79
2021/06/26 07:07:42;;;;;;;0.73;0.73;;;;;;;;;;7025275;28;20553;-79
2021/06/26 07:11:03;;;;;;;1.00;0.70;;;;;;;;;;7026251;28;20127;-78
2021/06/26 07:14:23;;;;;;;0.73;0.68;;;;;;;;;;7025164;28;20531;-78
2021/06/26 07:17:43;;;;;;;3.95;0.82;;;;;;;;;;7006178;28;20051;-80
2021/06/26 07:21:04;;;;;;;0.82;0.80;;;;;;;;;;7006735;28;20135;-79
2021/06/26 07:24:24;;;;;;;1.85;0.82;;;;;;;;;;7025665;28;20056;-79
2021/06/26 07:27:45;;;;;;;3.47;0.88;;;;;;;;;;7025873;28;20055;-80
2021/06/26 07:31:05;;;;;;;0.82;0.80;;;;;;;;;;7024248;28;20064;-80
2021/06/26 07:34:26;;;;;;;2.65;0.95;;;;;;;;;;7033794;28;20048;-79
2021/06/26 07:37:46;;;;;;;1.75;0.70;;;;;;;;;;6997733;28;20044;-78
2021/06/26 07:41:07;;;;;;;0.90;0.80;;;;;;;;;;6999413;28;20045;-78
2021/06/26 07:44:27;;;;;;;1.58;0.82;;;;;;;;;;7036318;28;20547;-78
2021/06/26 07:47:47;;;;;;;1.33;0.82;;;;;;;;;;6997708;28;20129;-79
2021/06/26 07:51:08;;;;;;;1.40;0.80;;;;;;;;;;6997438;28;20612;-78
2021/06/26 07:54:28;;;;;;;1.55;0.70;;;;;;;;;;7006983;28;20044;-77
2021/06/26 07:57:49;;;;;;;0.68;0.68;;;;;;;;;;6997535;28;20062;-80
2021/06/26 08:01:09;;;;;;;3.58;1.08;;;;;;;;;;6987929;28;20044;-79
2021/06/26 08:04:30;;;;;;;7.32;0.70;;;;;;;;;;6998384;28;20178;-78
2021/06/26 08:07:52;;;;;;;2.53;0.82;;;;;;;;;;6996890;28;20048;-80
2021/06/26 08:11:12;;;;;;;1.60;0.90;;;;;;;;;;7012265;28;20086;-78
2021/06/26 08:14:33;;;;;;;3.40;0.82;;;;;;;;;;7026539;28;20048;-80
2021/06/26 08:17:53;;;;;;;6.22;0.60;;;;;;;;;;7005733;28;20054;-80
2021/06/26 08:21:13;;;;;;;5.65;1.20;;;;;;;;;;7031025;28;20052;-83
2021/06/26 08:24:34;;;;;;;1.42;0.90;;;;;;;;;;7013735;28;20044;-85
2021/06/26 08:27:55;;;;;;;15.30;1.38;;;;;;;;;;6970766;28;20094;-85
2021/06/26 08:31:15;;;;;;;12.23;1.33;;;;;;;;;;7025223;28;20055;-87
2021/06/26 08:34:36;;;;;;;46.83;3.75;;;;;;;;;;7023478;28;20059;-86
2021/06/26 08:37:56;;;;;;;25.77;1.30;;;;;;;;;;7023910;28;20396;-86
2021/06/26 08:41:20;;;;;;;2.67;0.90;;;;;;;;;;7024612;28;20550;-86
2021/06/26 08:44:41;;;;;;;6.13;1.13;;;;;;;;;;7025734;28;20040;-84
2021/06/26 08:48:02;;;;;;;4.28;0.90;;;;;;;;;;7023899;28;20048;-82
2021/06/26 08:51:22;;;;;;;3.85;1.08;;;;;;;;;;6988043;28;20067;-86
2021/06/26 08:54:43;;;;;;;2.67;1.08;;;;;;;;;;7004593;28;20052;-86
2021/06/26 08:58:04;;;;;;;9.23;1.13;;;;;;;;;;7023854;28;20048;-85
2021/06/26 09:01:25;;;;;;;9.32;1.10;;;;;;;;;;7023490;28;20068;-83
2021/06/26 09:04:45;;;;;;;1.27;0.90;;;;;;;;;;7025262;28;20109;-83
2021/06/26 09:08:15;;;;;;;4.55;1.20;;;;;;;;;;7023603;28;20052;-84
2021/06/26 09:11:35;;;;;;;5.60;1.13;;;;;;;;;;7007035;28;20134;-85
2021/06/26 09:14:56;;;;;;;6.00;1.25;;;;;;;;;;7023927;28;20063;-84
2021/06/26 09:18:20;;;;;;;3.78;1.42;;;;;;;;;;7006588;28;20083;-84
2021/06/26 09:21:43;;;;;;;3.97;1.20;;;;;;;;;;7026388;28;20036;-84
2021/06/26 09:25:04;;;;;;;3.60;0.93;;;;;;;;;;7021519;28;20040;-84
2021/06/26 09:28:26;;;;;;;1.48;1.10;;;;;;;;;;7023836;28;20055;-83
2021/06/26 09:31:50;;;;;;;10.15;1.30;;;;;;;;;;7006990;28;20046;-83
2021/06/26 09:35:17;;;;;;;1.95;0.90;;;;;;;;;;7018619;28;20534;-82
2021/06/26 09:39:05;;;;;;;3.58;1.00;;;;;;;;;;6995929;28;20158;-83
2021/06/26 09:42:30;;;;;;;4.80;1.02;;;;;;;;;;7013338;28;20040;-84
2021/06/26 09:45:50;;;;;;;4.97;1.35;;;;;;;;;;6974379;28;20064;-84
2021/06/26 09:49:11;;;;;;;10.65;1.30;;;;;;;;;;7022289;28;20044;-84
2021/06/26 09:53:03;;;;;;;2.78;1.10;;;;;;;;;;7028555;28;20040;-85
2021/06/26 09:56:42;;;;;;;5.25;1.05;;;;;;;;;;7016874;28;20054;-85
2021/06/26 10:00:03;;;;;;;;;;;;;;;;;;7005753;28;20092;-86
2021/06/26 10:03:23;;;;;;;4.00;0.98;;;;;;;;;;6994931;28;19920;-85
2021/06/26 10:06:44;;;;;;;2.72;1.15;;;;;;;;;;6989600;28;20051;-85
2021/06/26 10:10:15;;;;;;;3.55;0.90;;;;;;;;;;7004943;28;20083;-84
2021/06/26 10:13:36;;;;;;;9.13;1.00;;;;;;;;;;7014203;28;20051;-85
2021/06/26 10:16:56;;;;;;;2.42;0.93;;;;;;;;;;7005031;28;20040;-85
2021/06/26 10:20:19;;;;;;;6.28;1.10;;;;;;;;;;6988290;28;20047;-84
2021/06/26 10:23:39;;;;;;;3.00;1.27;;;;;;;;;;7005465;28;20138;-85
2021/06/26 10:27:18;;;;;;;3.15;0.80;;;;;;;;;;7022906;28;20051;-84
2021/06/26 10:30:39;;;;;;;4.53;0.98;;;;;;;;;;6995069;28;20498;-84
2021/06/26 10:34:18;;;;;;;5.43;1.27;;;;;;;;;;6990363;28;20102;-84
2021/06/26 10:37:39;;;;;;;3.58;0.80;;;;;;;;;;6985646;28;20072;-85
2021/06/26 10:40:59;;;;;;;4.30;1.25;;;;;;;;;;6976773;28;20394;-83
2021/06/26 10:44:19;;;;;;;1.55;1.00;;;;;;;;;;7007566;28;20482;-84
2021/06/26 10:47:41;;;;;;;5.35;1.10;;;;;;;;;;6973305;28;20036;-84
2021/06/26 10:51:02;;;;;;;6.50;1.10;;;;;;;;;;6994162;28;20052;-83
2021/06/26 10:54:22;;;;;;;1.02;0.90;;;;;;;;;;7034128;28;20075;-83
2021/06/26 10:57:49;;;;;;;2.17;1.05;;;;;;;;;;7013230;28;20126;-84
2021/06/26 11:01:14;;;;;;;2.08;0.90;;;;;;;;;;7025280;28;20059;-83
2021/06/26 11:04:45;;;;;;;4.53;1.13;;;;;;;;;;7015200;28;20051;-83
2021/06/26 11:08:13;;;;;;;6.68;1.10;;;;;;;;;;7013010;28;20486;-80
2021/06/26 11:11:43;;;;;;;;;;;;;;;;;;6984665;28;20386;-80
2021/06/26 11:15:04;;;;;;;2.83;1.10;;;;;;;;;;7037171;28;20346;-80
2021/06/26 11:18:25;;;;;;;3.95;1.38;;;;;;;;;;6969767;28;20147;-80
2021/06/26 11:21:48;;;;;;;1.10;0.80;;;;;;;;;;7002065;28;20055;-80
2021/06/26 11:25:10;;;;;;;2.67;0.95;;;;;;;;;;7020423;28;20512;-80
2021/06/26 11:28:40;;;;;;;2.55;1.20;;;;;;;;;;7007571;28;20048;-80
2021/06/26 11:32:03;;;;;;;1.13;0.80;;;;;;;;;;7020419;28;20044;-81
2021/06/26 11:35:31;;;;;;;2.42;1.13;;;;;;;;;;6999272;28;20076;-80
2021/06/26 11:38:56;;;;;;;2.45;0.93;;;;;;;;;;6980444;28;20398;-80
2021/06/26 11:42:18;;;;;;;1.17;1.00;;;;;;;;;;7021752;28;20044;-80
2021/06/26 11:45:45;;;;;;;3.25;0.80;;;;;;;;;;7039568;28;20503;-80
2021/06/26 11:49:06;;;;;;;3.88;1.13;;;;;;;;;;7010810;28;20074;-80
2021/06/26 11:52:32;;;;;;;0.68;0.68;;;;;;;;;;7011584;28;20035;-80
2021/06/26 11:55:59;;;;;;;1.45;0.80;;;;;;;;;;7002927;28;20040;-80
2021/06/26 11:59:19;;;;;;;1.88;0.85;;;;;;;;;;6983864;28;20048;-80
2021/06/26 12:02:40;;;;;;;3.55;0.90;;;;;;;;;;7006401;28;20040;-80
2021/06/26 12:06:08;;;;;;;1.60;0.70;;;;;;;;;;7022618;28;20051;-80
2021/06/26 12:09:29;;;;;;;3.25;1.00;;;;;;;;;;7025558;28;20068;-80
2021/06/26 12:12:49;;;;;;;2.83;1.08;;;;;;;;;;7012597;28;20046;-80
2021/06/26 12:16:21;;;;;;;1.77;0.70;;;;;;;;;;6994488;28;20044;-79
2021/06/26 12:19:42;;;;;;;1.10;0.77;;;;;;;;;;7025320;28;20044;-80
2021/06/26 12:23:08;;;;;;;1.40;1.10;;;;;;;;;;7026186;28;20398;-80
2021/06/26 12:26:28;;;;;;;0.80;0.75;;;;;;;;;;6990114;28;20068;-80
2021/06/26 12:30:04;;;;;;;0.70;0.70;;;;;;;;;;7018302;28;20047;-80
2021/06/26 12:33:24;;;;;;;3.60;0.85;;;;;;;;;;7015382;28;20545;-80
2021/06/26 12:36:52;;;;;;;1.27;0.90;;;;;;;;;;7011087;28;20051;-81
2021/06/26 12:40:15;;;;;;;1.03;0.70;;;;;;;;;;6983490;28;20056;-79
2021/06/26 12:43:36;;;;;;;1.48;0.80;;;;;;;;;;6982220;28;20051;-79
2021/06/26 12:46:57;;;;;;;0.75;0.70;;;;;;;;;;6997008;28;20041;-79
2021/06/26 12:50:17;;;;;;;1.27;0.70;;;;;;;;;;6992869;28;20047;-79
2021/06/26 12:53:42;;;;;;;3.35;1.23;;;;;;;;;;7023525;28;20139;-79
2021/06/26 12:57:02;;;;;;;0.60;0.60;;;;;;;;;;7023198;28;20044;-79
2021/06/26 13:00:24;;;;;;;1.85;0.80;;;;;;;;;;7024084;28;20074;-81
2021/06/26 13:03:54;;;;;;;1.33;0.70;;;;;;;;;;7030252;28;20044;-80
2021/06/26 13:07:26;;;;;;;1.40;0.70;;;;;;;;;;7025309;28;20048;-80
2021/06/26 13:10:49;;;;;;;2.55;0.82;;;;;;;;;;7006739;28;20109;-80
2021/06/26 13:14:14;;;;;;;0.60;0.60;;;;;;;;;;7003847;28;20044;-81
2021/06/26 13:17:35;;;;;;;0.70;0.70;;;;;;;;;;7022421;28;20048;-78
2021/06/26 13:20:56;;;;;;;0.90;0.70;;;;;;;;;;7006309;28;20047;-80
2021/06/26 13:24:18;;;;;;;1.05;0.77;;;;;;;;;;7024106;28;20071;-79
2021/06/26 13:27:42;;;;;;;0.63;0.63;;;;;;;;;;7247174;22;20093;-82
2021/06/26 13:31:02;;;;;;;2.15;0.80;;;;;;;;;;7032120;28;20488;-91
2021/06/26 13:34:23;;;;;;;1.02;0.90;;;;;;;;;;7031196;28;20109;-91
2021/06/26 13:37:44;;;;;;;1.27;0.98;;;;;;;;;;6977256;28;20053;-90
2021/06/26 13:41:04;;;;;;;1.20;0.70;;;;;;;;;;7015639;28;20044;-91
2021/06/26 13:44:24;;;;;;;1.95;0.73;;;;;;;;;;7033305;28;20059;-91
2021/06/26 13:47:45;;;;;;;1.48;0.75;;;;;;;;;;7019006;28;20076;-92
2021/06/26 13:51:05;;;;;;;1.13;0.75;;;;;;;;;;7019246;28;20048;-93
2021/06/26 13:54:26;;;;;;;4.28;0.82;;;;;;;;;;7033018;28;20485;-93
2021/06/26 13:57:47;;;;;;;0.60;0.60;;;;;;;;;;7033166;28;20045;-87
2021/06/26 14:01:07;;;;;;;2.30;0.82;;;;;;;;;;7032424;28;20044;-90
2021/06/26 14:04:28;;;;;;;0.60;0.60;;;;;;;;;;7019990;28;20049;-85
2021/06/26 14:07:49;;;;;;;3.65;0.73;;;;;;;;;;7016807;28;20130;-89
2021/06/26 14:11:10;;;;;;;0.60;0.60;;;;;;;;;;7024453;28;20705;-94
2021/06/26 14:14:30;;;;;;;1.25;0.70;;;;;;;;;;7019123;28;20095;-90
2021/06/26 14:17:51;;;;;;;1.65;0.70;;;;;;;;;;7022715;28;20075;-91
2021/06/26 14:21:12;;;;;;;1.73;0.80;;;;;;;;;;7007207;28;20091;-91
2021/06/26 14:24:32;;;;;;;1.65;0.85;;;;;;;;;;7014471;28;20072;-92
2021/06/26 14:27:53;;;;;;;0.93;0.50;;;;;;;;;;7034769;28;20044;-89
2021/06/26 14:31:14;;;;;;;1.38;0.65;;;;;;;;;;7035725;28;20073;-90
2021/06/26 14:34:34;;;;;;;9.85;1.05;;;;;;;;;;7022433;28;20048;-90
2021/06/26 14:37:54;;;;;;;0.60;0.60;;;;;;;;;;7022305;28;20058;-91
2021/06/26 14:41:15;;;;;;;3.10;0.80;;;;;;;;;;7014858;28;20128;-91
2021/06/26 14:44:36;;;;;;;0.93;0.60;;;;;;;;;;6999758;28;20048;-92
2021/06/26 14:47:56;;;;;;;0.55;0.50;;;;;;;;;;7008983;28;20075;-89
2021/06/26 14:51:17;;;;;;;0.65;0.52;;;;;;;;;;7003311;28;20040;-89
2021/06/26 14:54:38;;;;;;;2.65;0.63;;;;;;;;;;7013615;28;20056;-90
2021/06/26 14:57:58;;;;;;;0.40;0.40;;;;;;;;;;7008452;28;20070;-89
2021/06/26 15:01:19;;;;;;;0.90;0.65;;;;;;;;;;7021804;28;20040;-89
2021/06/26 15:04:41;;;;;;;0.68;0.68;;;;;;;;;;7025658;28;20056;-89
2021/06/26 15:08:02;;;;;;;0.70;0.52;;;;;;;;;;7016027;28;20052;-89
2021/06/26 15:11:22;;;;;;;1.40;0.60;;;;;;;;;;7019434;28;20133;-89
2021/06/26 15:14:43;;;;;;;0.75;0.70;;;;;;;;;;7022347;28;20044;-88
2021/06/26 15:18:04;;;;;;;0.50;0.50;;;;;;;;;;7006291;28;20523;-88
2021/06/26 15:21:24;;;;;;;0.80;0.63;;;;;;;;;;7033461;28;20044;-85
2021/06/26 15:24:45;;;;;;;0.93;0.60;;;;;;;;;;7020557;28;20409;-84
2021/06/26 15:28:05;;;;;;;0.70;0.70;;;;;;;;;;7029849;28;20048;-83
2021/06/26 15:31:26;;;;;;;1.77;1.00;;;;;;;;;;7032378;28;21544;-83
2021/06/26 15:34:46;;;;;;;2.97;1.33;;;;;;;;;;7007577;28;20043;-83
2021/06/26 15:38:08;;;;;;;2.00;1.08;;;;;;;;;;7006124;28;20048;-82
2021/06/26 15:41:29;;;;;;;2.70;1.00;;;;;;;;;;7011666;28;20174;-82
2021/06/26 15:44:49;;;;;;;2.35;1.20;;;;;;;;;;7034261;28;20044;-83
2021/06/26 15:48:10;;;;;;;2.72;1.20;;;;;;;;;;7020204;28;20137;-83
2021/06/26 15:51:35;;;;;;;8.35;1.27;;;;;;;;;;7030646;28;20493;-83
2021/06/26 15:54:55;;;;;;;4.10;1.23;;;;;;;;;;7006494;28;20079;-83
2021/06/26 15:58:16;;;;;;;1.77;1.10;;;;;;;;;;7009750;28;20032;-83
2021/06/26 16:01:36;;;;;;;2.30;1.00;;;;;;;;;;7016884;28;20083;-83
2021/06/26 16:04:56;;;;;;;3.15;1.00;;;;;;;;;;7008568;28;20065;-83
2021/06/26 16:08:17;;;;;;;3.85;1.10;;;;;;;;;;7034757;28;20048;-83
2021/06/26 16:11:38;;;;;;;4.03;1.08;;;;;;;;;;7040011;28;20058;-83
2021/06/26 16:14:58;;;;;;;2.45;1.08;;;;;;;;;;7042327;28;20063;-83
2021/06/26 16:18:18;;;;;;;1.63;0.80;;;;;;;;;;7043206;28;20138;-83
2021/06/26 16:21:39;;;;;;;2.10;1.17;;;;;;;;;;7040472;28;20051;-82
2021/06/26 16:25:00;;;;;;;2.58;1.13;;;;;;;;;;7039214;28;20052;-83
2021/06/26 16:28:20;;;;;;;1.90;1.10;;;;;;;;;;7034692;28;20500;-82
2021/06/26 16:31:41;;;;;;;1.40;0.90;;;;;;;;;;7034545;28;20039;-83
2021/06/26 16:35:01;;;;;;;3.30;0.90;;;;;;;;;;7026076;28;20123;-83
2021/06/26 16:38:31;;;;;;;2.78;1.13;;;;;;;;;;7027456;28;20154;-83
2021/06/26 16:41:51;;;;;;;1.25;0.88;;;;;;;;;;7025069;28;20045;-83
2021/06/26 16:45:13;;;;;;;1.70;0.90;;;;;;;;;;7019896;28;20136;-81
2021/06/26 16:48:36;;;;;;;0.73;0.70;;;;;;;;;;7005765;28;20108;-83
2021/06/26 16:51:56;;;;;;;1.30;0.82;;;;;;;;;;7018152;28;20067;-83
2021/06/26 16:55:17;;;;;;;1.05;0.90;;;;;;;;;;7019796;28;20061;-83
2021/06/26 16:58:38;;;;;;;2.08;0.90;;;;;;;;;;7017369;28;20060;-83
2021/06/26 17:01:58;;;;;;;5.75;0.82;;;;;;;;;;7024977;28;20055;-83
2021/06/26 17:05:19;;;;;;;2.50;0.90;;;;;;;;;;7018647;28;20084;-83
2021/06/26 17:08:39;;;;;;;1.52;1.00;;;;;;;;;;7028057;28;20102;-83
2021/06/26 17:12:00;;;;;;;1.63;0.90;;;;;;;;;;7015117;28;20468;-83
2021/06/26 17:15:20;;;;;;;1.90;0.90;;;;;;;;;;7020709;28;20037;-83
2021/06/26 17:18:41;;;;;;;1.60;1.00;;;;;;;;;;7007807;28;20113;-83
2021/06/26 17:22:01;;;;;;;1.60;1.00;;;;;;;;;;7015905;28;20525;-82
2021/06/26 17:25:21;;;;;;;1.75;1.00;;;;;;;;;;7008691;28;20044;-83
2021/06/26 17:28:42;;;;;;;2.47;0.77;;;;;;;;;;7016779;28;20065;-82
2021/06/26 17:32:03;;;;;;;2.13;0.80;;;;;;;;;;6991976;28;20409;-83
2021/06/26 17:35:24;;;;;;;1.98;0.90;;;;;;;;;;7026356;28;20067;-83
2021/06/26 17:38:45;;;;;;;1.02;0.73;;;;;;;;;;7007385;28;20617;-83
2021/06/26 17:42:06;;;;;;;1.67;0.90;;;;;;;;;;7028559;28;20051;-82
2021/06/26 17:45:26;;;;;;;1.35;0.90;;;;;;;;;;7031729;28;20060;-83
2021/06/26 17:48:47;;;;;;;1.17;0.80;;;;;;;;;;7023047;28;20095;-83
2021/06/26 17:52:07;;;;;;;0.90;0.70;;;;;;;;;;7018609;28;20053;-83
2021/06/26 17:55:29;;;;;;;1.25;0.80;;;;;;;;;;7025963;28;20056;-84
2021/06/26 17:58:49;;;;;;;2.55;0.80;;;;;;;;;;7017702;28;20036;-83
2021/06/26 18:02:10;;;;;;;1.67;0.80;;;;;;;;;;7019484;28;20088;-82
2021/06/26 18:05:31;;;;;;;1.52;0.90;;;;;;;;;;7034429;28;20047;-82
2021/06/26 18:08:51;;;;;;;1.77;0.80;;;;;;;;;;7036514;28;20048;-82
2021/06/26 18:12:12;;;;;;;1.25;0.90;;;;;;;;;;7021685;28;20094;-83
2021/06/26 18:15:32;;;;;;;2.20;0.80;;;;;;;;;;7030826;28;20048;-82
2021/06/26 18:18:53;;;;;;;1.50;0.80;;;;;;;;;;7003690;28;20055;-82
2021/06/26 18:22:14;;;;;;;1.80;0.82;;;;;;;;;;7017438;28;20048;-90
2021/06/26 18:25:34;;;;;;;0.68;0.68;;;;;;;;;;7032791;28;20040;-91
2021/06/26 18:28:55;;;;;;;2.78;0.98;;;;;;;;;;7025390;28;20044;-96
2021/06/26 18:32:15;;;;;;;3.40;1.00;;;;;;;;;;7026443;28;20056;-95
2021/06/26 18:35:38;;;;;;;2.58;1.20;;;;;;;;;;7030301;28;20055;-93
2021/06/26 18:38:59;;;;;;;2.60;1.00;;;;;;;;;;7036066;28;20121;-87
2021/06/26 18:42:19;;;;;;;1.50;0.82;;;;;;;;;;7033920;28;20378;-86
2021/06/26 18:45:40;;;;;;;3.25;0.93;;;;;;;;;;7040125;28;20048;-86
2021/06/26 18:49:00;;;;;;;3.85;1.15;;;;;;;;;;7025929;28;20514;-86
2021/06/26 18:52:21;;;;;;;2.92;0.98;;;;;;;;;;7029882;28;20071;-86
2021/06/26 18:55:43;;;;;;;1.90;0.90;;;;;;;;;;7034853;28;20075;-87
2021/06/26 18:59:03;;;;;;;1.25;1.00;;;;;;;;;;7029292;28;20044;-87
2021/06/26 19:02:24;;;;;;;4.85;0.90;;;;;;;;;;7035246;28;20142;-87
2021/06/26 19:05:45;;;;;;;0.80;0.80;;;;;;;;;;7034705;28;20052;-86
2021/06/26 19:09:07;;;;;;;1.33;1.02;;;;;;;;;;7035302;28;20066;-86
2021/06/26 19:12:28;;;;;;;2.47;1.00;;;;;;;;;;7034679;28;20047;-86
2021/06/26 19:15:48;;;;;;;1.50;0.90;;;;;;;;;;7033485;28;20051;-86
2021/06/26 19:19:09;;;;;;;3.33;0.90;;;;;;;;;;7034771;28;20832;-87
2021/06/26 19:22:29;;;;;;;5.50;0.90;;;;;;;;;;7034931;28;20524;-88
2021/06/26 19:25:52;;;;;;;2.22;0.90;;;;;;;;;;7034126;28;20058;-87
2021/06/26 19:29:12;;;;;;;2.33;0.95;;;;;;;;;;7018451;28;20045;-87
2021/06/26 19:32:33;;;;;;;0.68;0.68;;;;;;;;;;7008479;28;20397;-87
2021/06/26 19:35:54;;;;;;;2.17;0.90;;;;;;;;;;7033723;28;20055;-87
2021/06/26 19:39:15;;;;;;;1.92;1.17;;;;;;;;;;7017204;28;20043;-88
2021/06/26 19:42:35;;;;;;;1.83;1.00;;;;;;;;;;7020689;28;20398;-87
2021/06/26 19:45:56;;;;;;;1.77;0.80;;;;;;;;;;7034149;28;20050;-86
2021/06/26 19:49:21;;;;;;;1.80;0.90;;;;;;;;;;7021285;28;20080;-88
2021/06/26 19:52:42;;;;;;;1.73;0.85;;;;;;;;;;7020808;28;20394;-87
2021/06/26 19:56:14;;;;;;;2.08;1.00;;;;;;;;;;7028576;28;20040;-87
2021/06/26 19:59:35;;;;;;;1.88;0.90;;;;;;;;;;7002643;28;20497;-87
2021/06/26 20:02:55;;;;;;;0.90;0.88;;;;;;;;;;7020005;28;20058;-87
2021/06/26 20:06:16;;;;;;;1.30;1.00;;;;;;;;;;7033501;28;20052;-87
2021/06/26 20:09:36;;;;;;;0.93;0.80;;;;;;;;;;7021468;28;20174;-87